createdAt,value
2022-10-14T00:02:26.033Z,66.32
2022-10-14T00:07:27.443Z,62.10
2022-10-14T00:12:29.540Z,60.15
2022-10-14T00:17:30.948Z,61.70
2022-10-14T00:22:32.375Z,63.38
2022-10-14T00:27:33.848Z,68.95
2022-10-14T00:32:35.257Z,61.00
2022-10-14T00:37:36.695Z,60.55
2022-10-14T00:42:38.207Z,61.55
2022-10-14T00:47:41.772Z,66.13
2022-10-14T00:52:44.762Z,62.30
2022-10-14T00:57:46.285Z,64.30
2022-10-14T01:02:48.605Z,64.75
2022-10-14T01:08:15.527Z,64.90
2022-10-14T01:13:22.583Z,66.55
2022-10-14T01:18:48.318Z,67.22
2022-10-14T01:24:18.784Z,58.05
2022-10-14T01:29:25.936Z,64.25
2022-10-14T01:34:34.504Z,63.25
2022-10-14T01:39:42.236Z,58.97
2022-10-14T01:44:50.088Z,62.95
2022-10-14T01:50:02.854Z,71.93
2022-10-14T01:55:09.166Z,79.68
2022-10-14T02:00:11.418Z,78.95
2022-10-14T02:05:23.284Z,71.05
2022-10-14T02:10:34.145Z,70.00
2022-10-14T02:16:14.749Z,68.38
2022-10-14T02:21:19.933Z,78.57
2022-10-14T02:26:22.589Z,74.80
2022-10-14T02:31:27.491Z,63.28
2022-10-14T02:36:30.162Z,71.63
2022-10-14T02:41:36.207Z,65.57
2022-10-14T02:46:40.268Z,73.93
2022-10-14T02:51:41.754Z,74.35
2022-10-14T02:56:43.265Z,70.03
2022-10-14T03:01:44.876Z,70.97
2022-10-14T03:06:46.273Z,75.22
2022-10-14T03:11:48.084Z,80.97
2022-10-14T03:16:49.503Z,79.93
2022-10-14T03:21:51.540Z,75.10
2022-10-14T03:26:53.038Z,83.45
2022-10-14T03:31:54.580Z,78.35
2022-10-14T03:36:56.053Z,78.68
2022-10-14T03:41:57.664Z,84.50
2022-10-14T03:46:59.164Z,76.57
2022-10-14T03:52:00.620Z,78.95
2022-10-14T03:57:02.117Z,78.03
2022-10-14T04:02:03.627Z,78.13
2022-10-14T04:07:05.108Z,82.75
2022-10-14T04:12:06.658Z,85.72
2022-10-14T04:17:08.062Z,79.22
2022-10-14T04:22:10.082Z,79.47
2022-10-14T04:27:11.499Z,64.03
2022-10-14T04:32:12.933Z,80.40
2022-10-14T04:37:14.502Z,71.25
2022-10-14T04:42:15.951Z,66.25
2022-10-14T04:47:17.393Z,74.82
2022-10-14T04:52:19.140Z,66.63
2022-10-14T04:57:20.776Z,74.38
2022-10-14T05:02:22.473Z,77.13
2022-10-14T05:07:24.136Z,69.50
2022-10-14T05:12:25.717Z,74.15
2022-10-14T05:17:27.268Z,74.13
2022-10-14T05:22:28.690Z,72.50
2022-10-14T05:27:30.133Z,64.05
2022-10-14T05:32:31.957Z,72.97
2022-10-14T05:37:33.552Z,75.05
2022-10-14T05:42:35.119Z,75.22
2022-10-14T05:47:36.861Z,85.18
2022-10-14T05:52:40.117Z,86.57
2022-10-14T05:57:43.626Z,83.18
2022-10-14T06:02:45.099Z,85.70
2022-10-14T06:07:46.565Z,91.72
2022-10-14T06:12:48.050Z,91.78
2022-10-14T06:17:49.497Z,84.53
2022-10-14T06:22:50.932Z,83.75
2022-10-14T06:27:52.402Z,79.20
2022-10-14T06:32:54.160Z,75.28
2022-10-14T06:37:56.423Z,77.38
2022-10-14T06:42:59.124Z,74.97
2022-10-14T06:48:00.578Z,72.00
2022-10-14T06:53:02.033Z,73.57
2022-10-14T06:58:03.525Z,76.00
2022-10-14T07:03:04.989Z,67.95
2022-10-14T07:08:07.329Z,72.47
2022-10-14T07:13:10.565Z,71.88
2022-10-14T07:18:12.519Z,72.45
2022-10-14T07:23:14.413Z,60.03
2022-10-14T07:28:15.957Z,70.43
2022-10-14T07:33:17.393Z,67.15
2022-10-14T07:38:18.845Z,66.95
2022-10-14T07:43:20.318Z,63.65
2022-10-14T07:48:27.426Z,65.72
2022-10-14T07:53:35.219Z,62.75
2022-10-14T07:58:38.953Z,57.42
2022-10-14T08:03:43.749Z,59.22
2022-10-14T08:08:45.716Z,64.10
2022-10-14T08:13:47.693Z,56.03
2022-10-14T08:18:49.773Z,62.50
2022-10-14T08:23:51.613Z,50.33
2022-10-14T08:28:53.665Z,54.10
2022-10-14T08:33:55.376Z,53.65
2022-10-14T08:38:57.022Z,51.33
2022-10-14T08:44:17.212Z,59.88
2022-10-14T08:49:56.804Z,48.22
2022-10-14T08:55:05.013Z,48.75
2022-10-14T09:00:07.147Z,47.33
2022-10-14T09:05:16.783Z,45.08
2022-10-14T09:10:36.868Z,41.30
2022-10-14T09:15:42.464Z,37.72
2022-10-14T09:20:46.475Z,36.40
2022-10-14T09:26:05.639Z,36.75
2022-10-14T09:31:11.749Z,33.33
2022-10-14T09:36:19.414Z,29.45
2022-10-14T09:41:26.112Z,34.45
2022-10-14T09:46:27.661Z,31.83
2022-10-14T09:51:32.936Z,33.83
2022-10-14T09:56:40.634Z,34.60
2022-10-14T10:01:51.235Z,34.40
2022-10-14T10:06:55.073Z,36.03
2022-10-14T10:11:56.715Z,35.85
2022-10-14T10:17:07.470Z,37.85
2022-10-14T10:27:28.926Z,33.83
2022-10-14T10:32:33.145Z,40.92
2022-10-14T10:37:50.398Z,37.40
2022-10-14T10:43:16.345Z,36.13
2022-10-14T10:48:44.860Z,35.35
2022-10-14T10:54:07.895Z,33.28
2022-10-14T10:59:21.272Z,32.90
2022-10-14T11:04:34.271Z,29.83
2022-10-14T11:10:05.462Z,28.02
2022-10-14T11:15:20.297Z,27.95
2022-10-14T11:21:09.888Z,29.30
2022-10-14T11:26:38.764Z,26.75
2022-10-14T11:31:51.001Z,28.08
2022-10-14T11:37:02.421Z,21.90
2022-10-14T11:42:13.591Z,26.25
2022-10-14T11:47:38.667Z,23.60
2022-10-14T11:53:20.490Z,25.60
2022-10-14T11:58:26.454Z,24.48
2022-10-14T12:03:45.948Z,23.25
2022-10-14T12:08:55.568Z,20.02
2022-10-14T12:14:09.404Z,17.13
2022-10-14T12:19:14.384Z,21.02
2022-10-14T12:24:20.090Z,21.67
2022-10-14T12:29:25.224Z,20.50
2022-10-14T12:34:32.125Z,18.38
2022-10-14T12:39:34.855Z,18.48
2022-10-14T12:44:52.006Z,22.02
2022-10-14T12:49:56.316Z,24.58
2022-10-14T12:55:00.771Z,26.42
2022-10-14T13:00:25.597Z,21.35
2022-10-14T13:05:27.268Z,26.33
2022-10-14T13:10:43.272Z,24.58
2022-10-14T13:15:52.784Z,23.98
2022-10-14T13:20:54.465Z,26.15
2022-10-14T13:26:28.305Z,25.83
2022-10-14T13:31:36.366Z,28.48
2022-10-14T13:36:57.517Z,27.77
2022-10-14T13:41:59.217Z,27.20
2022-10-14T13:47:01.452Z,26.50
2022-10-14T13:52:05.972Z,23.88
2022-10-14T14:02:38.343Z,28.27
2022-10-14T14:13:04.958Z,27.50
2022-10-14T14:18:30.549Z,31.40
2022-10-14T14:24:15.017Z,32.53
2022-10-14T14:29:19.189Z,30.55
2022-10-14T14:34:22.221Z,30.98
2022-10-14T14:39:29.240Z,29.58
2022-10-14T14:44:33.649Z,30.92
2022-10-14T14:49:38.581Z,27.27
2022-10-14T14:54:47.669Z,27.60
2022-10-14T15:00:18.797Z,28.85
2022-10-14T15:05:21.151Z,33.67
2022-10-14T15:10:26.438Z,34.08
2022-10-14T15:15:31.032Z,32.70
2022-10-14T15:20:35.893Z,45.30
2022-10-14T15:25:37.385Z,32.72
2022-10-14T15:30:38.749Z,47.25
2022-10-14T15:35:41.075Z,39.00
2022-10-14T15:40:42.592Z,35.05
2022-10-14T15:45:46.450Z,36.78
2022-10-14T15:50:48.357Z,46.22
2022-10-14T15:55:52.837Z,36.55
2022-10-14T16:00:54.558Z,37.50
2022-10-14T16:05:56.019Z,36.40
2022-10-14T16:10:59.049Z,35.92
2022-10-14T16:16:03.555Z,34.40
2022-10-14T16:21:05.239Z,38.00
2022-10-14T16:26:06.635Z,34.80
2022-10-14T16:31:12.458Z,40.30
2022-10-14T16:36:14.860Z,41.38
2022-10-14T16:41:16.434Z,36.70
2022-10-14T16:46:17.888Z,33.22
2022-10-14T16:56:40.672Z,30.02
2022-10-14T17:01:42.197Z,37.00
2022-10-14T17:06:43.689Z,37.08
2022-10-14T17:11:46.015Z,32.70
2022-10-14T17:16:48.484Z,33.50
2022-10-14T17:21:50.183Z,31.25
2022-10-14T17:26:51.597Z,31.77
2022-10-14T17:31:53.087Z,31.95
2022-10-14T17:36:54.842Z,31.42
2022-10-14T17:41:56.336Z,30.35
2022-10-14T17:46:59.258Z,31.27
2022-10-14T17:52:02.199Z,28.23
2022-10-14T17:57:03.781Z,29.35
2022-10-14T18:02:09.593Z,29.90
2022-10-14T18:07:11.972Z,30.83
2022-10-14T18:12:13.519Z,31.77
2022-10-14T18:17:15.247Z,25.13
2022-10-14T18:22:16.735Z,24.92
2022-10-14T18:27:18.692Z,28.92
2022-10-14T18:32:20.288Z,30.27
2022-10-14T18:37:21.989Z,25.83
2022-10-14T18:42:23.732Z,27.70
2022-10-14T18:47:25.351Z,26.75
2022-10-14T18:52:26.759Z,25.27
2022-10-14T18:57:29.043Z,30.55
2022-10-14T19:02:33.666Z,27.05
2022-10-14T19:07:35.715Z,26.67
2022-10-14T19:12:43.115Z,29.42
2022-10-14T19:17:50.870Z,30.25
2022-10-14T19:22:56.703Z,36.15
2022-10-14T19:27:58.549Z,30.17
2022-10-14T19:32:59.989Z,32.72
2022-10-14T19:38:01.408Z,30.88
2022-10-14T19:43:02.863Z,32.97
2022-10-14T19:48:05.881Z,29.58
2022-10-14T19:53:07.658Z,33.95
2022-10-14T19:58:09.501Z,27.70
2022-10-14T20:03:11.014Z,29.25
2022-10-14T20:08:12.596Z,26.67
2022-10-14T20:13:14.081Z,25.52
2022-10-14T20:18:17.973Z,24.13
2022-10-14T20:23:20.140Z,22.65
2022-10-14T20:28:21.713Z,21.27
2022-10-14T20:33:23.550Z,21.80
2022-10-14T20:38:25.055Z,20.48
2022-10-14T20:43:26.523Z,23.38
2022-10-14T20:48:27.971Z,25.60
2022-10-14T20:53:29.734Z,21.17
2022-10-14T20:58:31.656Z,24.00
2022-10-14T21:03:33.127Z,22.40
2022-10-14T21:08:35.655Z,21.02
2022-10-14T21:13:37.476Z,19.13
2022-10-14T21:18:38.937Z,24.10
2022-10-14T21:23:40.357Z,23.65
2022-10-14T21:28:42.109Z,22.98
2022-10-14T21:33:43.570Z,24.00
2022-10-14T21:38:45.166Z,26.67
2022-10-14T21:43:46.625Z,26.10
2022-10-14T21:48:48.094Z,23.73
2022-10-14T21:53:49.538Z,23.30
2022-10-14T21:58:51.073Z,21.50
2022-10-14T22:04:04.231Z,25.23
2022-10-14T22:09:07.153Z,23.30
2022-10-14T22:14:12.590Z,20.10
2022-10-14T22:19:14.260Z,24.52
2022-10-14T22:24:15.783Z,22.15
2022-10-14T22:29:17.835Z,24.08
2022-10-14T22:34:19.249Z,20.92
2022-10-14T22:39:20.840Z,28.30
2022-10-14T22:44:22.260Z,23.70
2022-10-14T22:49:23.726Z,25.73
2022-10-14T22:54:25.201Z,20.98
2022-10-14T22:59:26.765Z,23.63
2022-10-14T23:04:28.173Z,21.77
2022-10-14T23:09:29.938Z,23.65
2022-10-14T23:14:31.477Z,21.80
2022-10-14T23:19:33.209Z,21.55
2022-10-14T23:24:34.642Z,23.13
2022-10-14T23:29:36.084Z,22.88
2022-10-14T23:34:37.545Z,22.23
2022-10-14T23:39:39.280Z,24.45
2022-10-14T23:44:40.885Z,22.52
2022-10-14T23:49:42.345Z,24.33
2022-10-14T23:54:43.825Z,24.30
2022-10-14T23:59:45.348Z,26.33
